Terminal Aerodrome Forecast
Issued by NWS

Home | Current Version | Previous Version | Text Only | Print | Product List | Glossary On
Versions: 1 2 3 4 5 6 7 8 9 10 11 12
000
FTUS45 KGJT 060547
TAFEGE
TAF
KEGE 060547Z 0606/0706 06007KT P6SM FEW200
     FM061500 VRB04KT P6SM BKN200
     FM061900 15008KT P6SM VCSH SCT100 BKN250
     FM062000 19010G20KT P6SM VCSH BKN090 BKN200
     FM062200 22012KT P6SM VCSH SCT090 BKN200
     FM070200 17005KT P6SM VCSH BKN250
      AMD LTD TO CLD VIS AND WIND TIL 061300=

USA.gov is the U.S. government's official web portal to all federal, state and local government web resources and services.